createdAt,value
2018-05-24T00:00:14.368Z,19.58
2018-05-24T00:01:14.204Z,19.53
2018-05-24T00:02:14.187Z,19.49
2018-05-24T00:03:14.083Z,19.49
2018-05-24T00:04:14.001Z,19.53
2018-05-24T00:05:13.883Z,19.50
2018-05-24T00:06:13.903Z,19.43
2018-05-24T00:07:13.742Z,19.53
2018-05-24T00:08:13.712Z,19.57
2018-05-24T00:09:13.565Z,19.58
2018-05-24T00:10:13.612Z,19.49
2018-05-24T00:11:13.411Z,19.49
2018-05-24T00:12:13.470Z,19.52
2018-05-24T00:13:13.247Z,19.39
2018-05-24T00:15:55.344Z,19.24
2018-05-24T00:16:55.363Z,19.31
2018-05-24T00:17:55.187Z,19.32
2018-05-24T00:18:55.237Z,19.23
2018-05-24T00:19:55.035Z,19.28
2018-05-24T00:20:55.051Z,19.30
2018-05-24T00:21:54.885Z,19.34
2018-05-24T00:22:54.884Z,19.39
2018-05-24T00:23:54.722Z,19.45
2018-05-24T00:24:54.771Z,19.49
2018-05-24T00:25:54.574Z,19.39
2018-05-24T00:28:36.865Z,19.39
2018-05-24T00:29:36.888Z,19.47
2018-05-24T00:30:36.702Z,19.58
2018-05-24T00:33:18.868Z,19.61
2018-05-24T00:34:18.891Z,19.61
2018-05-24T00:35:18.686Z,19.65
2018-05-24T00:36:18.723Z,19.71
2018-05-24T00:37:18.542Z,19.62
2018-05-24T00:38:18.530Z,19.60
2018-05-24T00:39:18.379Z,19.65
2018-05-24T00:40:18.420Z,19.53
2018-05-24T00:41:18.225Z,19.60
2018-05-24T00:42:18.228Z,19.57
2018-05-24T00:43:18.088Z,19.62
2018-05-24T00:44:18.061Z,19.65
2018-05-24T00:45:17.920Z,19.65
2018-05-24T00:46:17.949Z,19.62
2018-05-24T00:47:17.775Z,19.61
2018-05-24T00:49:59.868Z,19.68
2018-05-24T00:50:59.866Z,19.75
2018-05-24T00:51:59.699Z,19.65
2018-05-24T00:52:59.662Z,19.78
2018-05-24T00:53:59.560Z,19.64
2018-05-24T00:54:59.568Z,19.58
2018-05-24T00:55:59.393Z,19.75
2018-05-24T00:56:59.377Z,19.68
2018-05-24T00:57:59.279Z,19.68
2018-05-24T00:58:59.240Z,19.72
2018-05-24T00:59:59.075Z,19.79
2018-05-24T01:00:59.100Z,19.65
2018-05-24T01:01:58.914Z,19.71
2018-05-24T01:02:58.905Z,19.64
2018-05-24T01:03:58.785Z,19.71
2018-05-24T01:04:58.746Z,19.71
2018-05-24T01:05:58.620Z,19.72
2018-05-24T01:06:58.625Z,19.71
2018-05-24T01:07:58.461Z,19.67
2018-05-24T01:08:58.438Z,19.70
2018-05-24T01:09:58.316Z,19.70
2018-05-24T01:10:58.339Z,19.80
2018-05-24T01:11:58.142Z,19.71
2018-05-24T01:12:58.165Z,19.70
2018-05-24T01:13:57.997Z,19.72
2018-05-24T01:14:57.992Z,19.71
2018-05-24T01:15:57.832Z,19.70
2018-05-24T01:16:57.878Z,19.76
2018-05-24T01:17:57.711Z,19.72
2018-05-24T01:18:57.687Z,19.71
2018-05-24T01:19:57.585Z,19.76
2018-05-24T01:20:57.500Z,19.75
2018-05-24T01:21:57.358Z,19.75
2018-05-24T01:22:57.414Z,19.67
2018-05-24T01:23:57.212Z,19.68
2018-05-24T01:24:57.238Z,19.62
2018-05-24T01:25:57.083Z,19.61
2018-05-24T01:28:39.367Z,19.70
2018-05-24T01:29:39.336Z,19.65
2018-05-24T01:30:39.230Z,19.64
2018-05-24T01:31:39.264Z,19.70
2018-05-24T01:32:39.048Z,19.55
2018-05-24T01:33:39.055Z,19.64
2018-05-24T01:34:38.906Z,19.72
2018-05-24T01:35:38.886Z,19.64
2018-05-24T01:36:38.761Z,19.67
2018-05-24T01:37:38.779Z,19.60
2018-05-24T01:38:38.585Z,19.60
2018-05-24T01:41:20.890Z,19.61
2018-05-24T01:42:20.874Z,19.60
2018-05-24T01:43:20.704Z,19.57
2018-05-24T01:44:20.682Z,19.57
2018-05-24T01:45:20.554Z,19.60
2018-05-24T01:46:20.630Z,19.50
2018-05-24T01:47:20.400Z,19.60
2018-05-24T01:48:20.401Z,19.49
2018-05-24T01:49:20.242Z,19.53
2018-05-24T01:52:02.396Z,19.42
2018-05-24T01:53:19.950Z,19.43
2018-05-24T01:54:02.211Z,19.45
2018-05-24T01:55:02.242Z,19.31
2018-05-24T01:56:02.086Z,19.38
2018-05-24T01:57:02.059Z,19.30
2018-05-24T01:58:01.922Z,19.42
2018-05-24T01:59:01.956Z,19.42
2018-05-24T02:00:01.753Z,19.47
2018-05-24T02:01:01.754Z,19.42
2018-05-24T02:02:01.633Z,19.42
2018-05-24T02:03:01.591Z,19.24
2018-05-24T02:04:01.450Z,19.40
2018-05-24T02:05:01.471Z,19.40
2018-05-24T02:06:01.279Z,19.46
2018-05-24T02:07:01.312Z,19.55
2018-05-24T02:08:01.121Z,19.43
2018-05-24T02:09:01.082Z,19.52
2018-05-24T02:10:00.984Z,19.47
2018-05-24T02:11:00.997Z,19.49
2018-05-24T02:12:00.853Z,19.46
2018-05-24T02:13:00.812Z,19.43
2018-05-24T02:14:00.664Z,19.50
2018-05-24T02:15:00.623Z,19.58
2018-05-24T02:16:00.508Z,19.53
2018-05-24T02:17:00.545Z,19.58
2018-05-24T02:18:00.380Z,19.57
2018-05-24T02:19:00.340Z,19.58
2018-05-24T02:20:00.188Z,19.53
2018-05-24T02:21:00.160Z,19.50
2018-05-24T02:22:00.052Z,19.60
2018-05-24T02:23:00.096Z,19.61
2018-05-24T02:23:59.913Z,19.58
2018-05-24T02:24:59.863Z,19.64
2018-05-24T02:25:59.783Z,19.62
2018-05-24T02:26:59.775Z,19.57
2018-05-24T02:27:59.592Z,19.57
2018-05-24T02:28:59.656Z,19.62
2018-05-24T02:29:59.415Z,19.60
2018-05-24T02:32:41.378Z,19.68
2018-05-24T02:33:42.442Z,19.67
2018-05-24T02:34:41.227Z,19.60
2018-05-24T02:35:41.208Z,19.61
2018-05-24T02:36:41.079Z,19.61
2018-05-24T02:37:41.111Z,19.61
2018-05-24T02:38:40.952Z,19.60
2018-05-24T02:41:22.907Z,19.57
2018-05-24T02:44:04.968Z,19.60
2018-05-24T02:45:04.948Z,19.47
2018-05-24T02:46:04.735Z,19.53
2018-05-24T02:47:04.727Z,19.55
2018-05-24T02:48:04.601Z,19.52
2018-05-24T02:49:04.530Z,19.52
2018-05-24T02:50:04.447Z,19.43
2018-05-24T02:51:04.447Z,19.40
2018-05-24T02:52:04.299Z,19.40
2018-05-24T02:53:04.238Z,19.43
2018-05-24T02:54:04.111Z,19.42
2018-05-24T02:55:04.076Z,19.34
2018-05-24T02:56:03.954Z,19.32
2018-05-24T02:57:03.971Z,19.30
2018-05-24T02:58:03.804Z,19.31
2018-05-24T02:59:03.772Z,19.34
2018-05-24T03:00:03.664Z,19.28
2018-05-24T03:01:04.651Z,19.31
2018-05-24T03:02:03.479Z,19.28
2018-05-24T03:03:03.486Z,19.30
2018-05-24T03:04:03.345Z,19.32
2018-05-24T03:05:03.299Z,19.31
2018-05-24T03:06:03.183Z,19.32
2018-05-24T03:08:45.429Z,19.40
2018-05-24T03:09:45.420Z,19.46
2018-05-24T03:10:45.256Z,19.38
2018-05-24T03:11:45.221Z,19.39
2018-05-24T03:12:45.081Z,19.42
2018-05-24T03:13:45.138Z,19.35
2018-05-24T03:14:44.929Z,19.35
2018-05-24T03:17:26.924Z,19.32
2018-05-24T03:20:08.989Z,19.43
2018-05-24T03:21:08.930Z,19.39
2018-05-24T03:22:08.737Z,19.34
2018-05-24T03:23:08.784Z,19.31
2018-05-24T03:24:08.614Z,19.46
2018-05-24T03:25:08.551Z,19.39
2018-05-24T03:26:08.426Z,19.39
2018-05-24T03:27:08.463Z,19.35
2018-05-24T03:28:08.270Z,19.32
2018-05-24T03:29:08.300Z,19.31
2018-05-24T03:30:08.116Z,19.34
2018-05-24T03:31:08.079Z,19.24
2018-05-24T03:32:07.977Z,19.16
2018-05-24T03:33:07.991Z,19.17
2018-05-24T03:34:07.804Z,19.12
2018-05-24T03:35:07.904Z,19.05
2018-05-24T03:36:07.649Z,19.13
2018-05-24T03:37:07.604Z,19.12
2018-05-24T03:38:07.483Z,18.97
2018-05-24T03:39:07.513Z,18.90
2018-05-24T03:40:07.356Z,18.83
2018-05-24T03:41:07.328Z,18.87
2018-05-24T03:42:07.177Z,18.86
2018-05-24T03:43:07.138Z,18.86
2018-05-24T03:44:07.038Z,18.84
2018-05-24T03:45:07.043Z,18.86
2018-05-24T03:46:06.890Z,18.72
2018-05-24T03:47:06.853Z,18.76
2018-05-24T03:48:06.714Z,18.72
2018-05-24T03:49:06.660Z,18.62
2018-05-24T03:50:06.586Z,18.78
2018-05-24T03:51:06.611Z,18.62
2018-05-24T03:52:06.480Z,18.60
2018-05-24T03:53:29.999Z,18.64
2018-05-24T03:54:06.242Z,18.65
2018-05-24T03:55:06.296Z,18.69
2018-05-24T03:56:06.123Z,18.57
2018-05-24T03:57:06.105Z,18.53
2018-05-24T03:58:05.935Z,18.60
2018-05-24T03:59:05.906Z,18.56
2018-05-24T04:00:05.779Z,18.60
2018-05-24T04:01:05.746Z,18.59
2018-05-24T04:02:05.618Z,18.59
2018-05-24T04:03:05.623Z,18.57
2018-05-24T04:04:05.469Z,18.71
2018-05-24T04:05:05.437Z,18.62
2018-05-24T04:06:05.331Z,18.59
2018-05-24T04:07:05.285Z,18.65
2018-05-24T04:08:05.155Z,18.51
2018-05-24T04:09:05.153Z,18.65
2018-05-24T04:10:05.002Z,18.50
2018-05-24T04:11:04.977Z,18.50
2018-05-24T04:12:04.866Z,18.65
2018-05-24T04:13:04.873Z,18.56
2018-05-24T04:14:04.719Z,18.62
2018-05-24T04:15:04.679Z,18.53
2018-05-24T04:16:04.527Z,18.39
2018-05-24T04:17:04.492Z,18.28
2018-05-24T04:18:04.365Z,18.26
2018-05-24T04:19:04.439Z,18.29
2018-05-24T04:20:04.205Z,18.44
2018-05-24T04:21:04.202Z,18.56
2018-05-24T04:22:04.053Z,18.46
2018-05-24T04:23:04.058Z,18.42
2018-05-24T04:24:03.903Z,18.29
2018-05-24T04:25:03.933Z,18.39
2018-05-24T04:26:03.747Z,18.41
2018-05-24T04:27:04.804Z,18.46
2018-05-24T04:28:03.587Z,18.47
2018-05-24T04:29:03.566Z,18.54
2018-05-24T04:30:03.437Z,18.39
2018-05-24T04:31:03.468Z,18.38
2018-05-24T04:32:03.270Z,18.32
2018-05-24T04:33:03.358Z,18.17
2018-05-24T04:34:03.135Z,18.19
2018-05-24T04:35:03.079Z,18.20
2018-05-24T04:36:02.959Z,18.09
2018-05-24T04:37:02.991Z,18.13
2018-05-24T04:38:02.815Z,18.10
2018-05-24T04:39:02.830Z,18.02
2018-05-24T04:40:02.638Z,17.86
2018-05-24T04:41:02.603Z,17.45
2018-05-24T04:42:02.485Z,17.36
2018-05-24T04:43:02.514Z,17.05
2018-05-24T04:44:02.354Z,16.85
2018-05-24T04:45:02.327Z,16.65
2018-05-24T04:46:02.185Z,16.55
2018-05-24T04:47:02.133Z,16.48
2018-05-24T04:48:02.023Z,16.34
2018-05-24T04:49:02.075Z,16.18
2018-05-24T04:50:01.871Z,16.13
2018-05-24T04:51:01.856Z,16.08
2018-05-24T04:52:01.697Z,16.08
2018-05-24T04:53:01.656Z,16.08
2018-05-24T04:54:01.644Z,16.10
2018-05-24T04:55:01.608Z,16.03
2018-05-24T04:56:01.385Z,16.10
2018-05-24T04:57:01.380Z,16.03
2018-05-24T04:58:01.230Z,15.95
2018-05-24T04:59:02.246Z,15.96
2018-05-24T05:00:01.090Z,15.98
2018-05-24T05:01:01.106Z,15.98
2018-05-24T05:02:00.926Z,15.99
2018-05-24T05:04:43.095Z,16.08
2018-05-24T05:05:42.904Z,16.01
2018-05-24T05:06:42.769Z,16.17
2018-05-24T05:07:42.810Z,16.16
2018-05-24T05:08:42.613Z,16.14
2018-05-24T05:11:24.452Z,16.14
2018-05-24T05:12:24.411Z,16.14
2018-05-24T05:13:24.272Z,16.07
2018-05-24T05:14:24.229Z,16.10
2018-05-24T05:15:24.135Z,16.11
2018-05-24T05:18:05.931Z,16.11
2018-05-24T05:19:05.924Z,16.01
2018-05-24T05:20:05.822Z,16.08
2018-05-24T05:21:05.734Z,16.01
2018-05-24T05:22:05.616Z,16.10
2018-05-24T05:23:37.511Z,16.13
2018-05-24T05:24:05.457Z,16.13
2018-05-24T05:25:06.539Z,16.08
2018-05-24T05:26:05.302Z,16.04
2018-05-24T05:27:05.263Z,16.16
2018-05-24T05:28:05.141Z,16.10
2018-05-24T05:29:05.172Z,16.10
2018-05-24T05:30:05.006Z,16.11
2018-05-24T05:31:05.026Z,16.03
2018-05-24T05:32:04.832Z,16.07
2018-05-24T05:33:04.793Z,16.08
2018-05-24T05:34:04.671Z,16.06
2018-05-24T05:35:04.698Z,16.07
2018-05-24T05:36:04.538Z,15.95
2018-05-24T05:38:46.438Z,15.98
2018-05-24T05:39:46.423Z,15.93
2018-05-24T05:40:46.354Z,15.96
2018-05-24T05:41:47.269Z,16.04
2018-05-24T05:42:46.128Z,16.07
2018-05-24T05:43:46.128Z,15.99
2018-05-24T05:44:46.039Z,16.03
2018-05-24T05:45:45.949Z,16.06
2018-05-24T05:46:45.859Z,15.93
2018-05-24T05:47:45.841Z,15.96
2018-05-24T05:48:45.649Z,15.91
2018-05-24T05:49:45.650Z,16.04
2018-05-24T05:50:45.497Z,15.95
2018-05-24T05:51:45.499Z,15.99
2018-05-24T05:52:45.329Z,15.96
2018-05-24T05:53:45.362Z,15.89
2018-05-24T05:54:45.185Z,15.81
2018-05-24T05:57:27.460Z,15.95
2018-05-24T05:58:27.495Z,15.96
2018-05-24T05:59:27.288Z,15.92
2018-05-24T06:00:27.295Z,15.91
2018-05-24T06:01:27.158Z,15.96
2018-05-24T06:02:27.096Z,16.08
2018-05-24T06:03:26.966Z,16.10
2018-05-24T06:04:27.026Z,16.13
2018-05-24T06:05:26.810Z,16.13
2018-05-24T06:06:26.824Z,16.13
2018-05-24T06:07:26.706Z,16.25
2018-05-24T06:08:26.624Z,16.37
2018-05-24T06:09:26.496Z,16.36
2018-05-24T06:10:26.552Z,16.44
2018-05-24T06:11:26.385Z,16.47
2018-05-24T06:12:26.376Z,16.55
2018-05-24T06:13:26.189Z,16.63
2018-05-24T06:14:26.172Z,16.62
2018-05-24T06:15:26.034Z,16.57
2018-05-24T06:18:07.959Z,16.67
2018-05-24T06:20:49.952Z,16.80
2018-05-24T06:21:49.996Z,16.72
2018-05-24T06:22:49.786Z,16.77
2018-05-24T06:23:49.764Z,16.66
2018-05-24T06:24:49.639Z,16.66
2018-05-24T06:25:49.687Z,16.62
2018-05-24T06:26:49.506Z,16.55
2018-05-24T06:27:49.535Z,16.57
2018-05-24T06:28:49.312Z,16.57
2018-05-24T06:29:49.298Z,16.63
2018-05-24T06:33:13.474Z,16.60
2018-05-24T06:34:13.488Z,16.73
2018-05-24T06:35:13.324Z,16.72
2018-05-24T06:37:55.477Z,16.75
2018-05-24T06:38:55.498Z,16.72
2018-05-24T06:39:55.300Z,16.72
2018-05-24T06:40:55.313Z,16.82
2018-05-24T06:41:55.134Z,16.72
2018-05-24T06:42:55.179Z,16.81
2018-05-24T06:43:54.980Z,16.90
2018-05-24T06:46:36.945Z,17.17
2018-05-24T06:47:37.986Z,17.17
2018-05-24T06:48:36.795Z,17.33
2018-05-24T06:49:36.834Z,17.20
2018-05-24T06:50:36.641Z,17.22
2018-05-24T06:51:36.642Z,17.21
2018-05-24T06:52:36.513Z,17.33
2018-05-24T06:53:36.488Z,17.35
2018-05-24T06:54:36.379Z,17.38
2018-05-24T06:55:36.362Z,17.36
2018-05-24T06:56:36.174Z,17.42
2018-05-24T06:57:36.173Z,17.33
2018-05-24T06:58:36.011Z,17.30
2018-05-24T06:59:35.999Z,17.39
2018-05-24T07:00:35.863Z,17.33
2018-05-24T07:03:17.963Z,17.30
2018-05-24T07:04:18.027Z,17.33
2018-05-24T07:05:17.870Z,17.28
2018-05-24T07:07:59.961Z,17.24
2018-05-24T07:09:00.960Z,17.33
2018-05-24T07:09:59.824Z,17.27
2018-05-24T07:10:59.881Z,17.36
2018-05-24T07:11:59.651Z,17.39
2018-05-24T07:12:59.646Z,17.40
2018-05-24T07:13:59.486Z,17.43
2018-05-24T07:14:59.556Z,17.38
2018-05-24T07:15:59.340Z,17.32
2018-05-24T07:16:59.330Z,17.43
2018-05-24T07:17:59.182Z,17.51
2018-05-24T07:18:59.195Z,17.58
2018-05-24T07:19:59.038Z,17.55
2018-05-24T07:20:59.052Z,17.62
2018-05-24T07:21:58.895Z,17.65
2018-05-24T07:22:58.863Z,17.70
2018-05-24T07:23:58.729Z,17.73
2018-05-24T07:24:58.683Z,17.86
2018-05-24T07:25:58.574Z,17.81
2018-05-24T07:26:58.587Z,17.89
2018-05-24T07:27:58.399Z,17.91
2018-05-24T07:28:58.420Z,18.10
2018-05-24T07:29:58.237Z,18.20
2018-05-24T07:31:14.279Z,18.34
2018-05-24T07:31:58.080Z,18.34
2018-05-24T07:32:58.106Z,18.51
2018-05-24T07:33:57.948Z,18.56
2018-05-24T07:34:57.917Z,18.59
2018-05-24T07:35:57.763Z,18.69
2018-05-24T07:36:57.722Z,18.76
2018-05-24T07:37:57.737Z,18.90
2018-05-24T07:38:57.632Z,18.84
2018-05-24T07:39:57.487Z,18.75
2018-05-24T07:40:57.486Z,18.74
2018-05-24T07:41:57.301Z,18.78
2018-05-24T07:42:57.261Z,18.79
2018-05-24T07:43:57.153Z,18.64
2018-05-24T07:44:57.212Z,18.69
2018-05-24T07:45:57.017Z,19.02
2018-05-24T07:46:56.962Z,19.13
2018-05-24T07:47:56.835Z,19.13
2018-05-24T07:48:56.781Z,19.10
2018-05-24T07:49:56.691Z,19.17
2018-05-24T07:50:56.740Z,19.17
2018-05-24T07:51:56.582Z,19.38
2018-05-24T07:53:49.555Z,19.35
2018-05-24T07:53:56.372Z,19.49
2018-05-24T07:54:56.407Z,19.43
2018-05-24T07:55:56.240Z,19.34
2018-05-24T07:56:57.285Z,19.43
2018-05-24T07:57:56.071Z,19.46
2018-05-24T07:58:56.032Z,19.20
2018-05-24T07:59:55.902Z,19.02
2018-05-24T08:00:55.943Z,19.13
2018-05-24T08:01:55.767Z,18.91
2018-05-24T08:04:38.001Z,19.35
2018-05-24T08:05:37.942Z,19.60
2018-05-24T08:06:37.819Z,19.47
2018-05-24T08:07:37.798Z,19.67
2018-05-24T08:08:37.670Z,19.90
2018-05-24T08:09:37.667Z,20.25
2018-05-24T08:10:37.522Z,20.50
2018-05-24T08:11:37.516Z,20.69
2018-05-24T08:12:37.381Z,20.93
2018-05-24T08:13:37.383Z,21.06
2018-05-24T08:14:37.216Z,21.38
2018-05-24T08:15:37.186Z,21.67
2018-05-24T08:16:38.003Z,21.58
2018-05-24T08:17:37.006Z,21.81
2018-05-24T08:18:36.896Z,22.12
2018-05-24T08:19:36.909Z,22.11
2018-05-24T08:20:36.752Z,21.93
2018-05-24T08:21:36.764Z,21.90
2018-05-24T08:22:36.691Z,21.64
2018-05-24T08:23:36.632Z,21.59
2018-05-24T08:24:36.440Z,21.58
2018-05-24T08:25:36.440Z,21.38
2018-05-24T08:26:36.285Z,21.42
2018-05-24T08:27:36.281Z,21.51
2018-05-24T08:28:36.146Z,21.63
2018-05-24T08:31:18.000Z,21.89
2018-05-24T08:32:18.024Z,21.73
2018-05-24T08:33:17.843Z,21.74
2018-05-24T08:34:17.872Z,21.67
2018-05-24T08:35:17.695Z,21.67
2018-05-24T08:36:17.678Z,21.48
2018-05-24T08:37:17.577Z,21.31
2018-05-24T08:38:17.607Z,21.21
2018-05-24T08:39:17.400Z,21.28
2018-05-24T08:40:17.406Z,21.46
2018-05-24T08:41:17.243Z,21.30
2018-05-24T08:42:17.243Z,21.52
2018-05-24T08:43:17.100Z,21.67
2018-05-24T08:44:17.109Z,21.81
2018-05-24T08:45:16.938Z,22.01
2018-05-24T08:46:16.931Z,22.15
2018-05-24T08:47:16.803Z,22.29
2018-05-24T08:48:16.791Z,22.15
2018-05-24T08:49:16.670Z,22.20
2018-05-24T08:51:58.492Z,22.02
2018-05-24T08:52:58.531Z,21.86
2018-05-24T08:53:58.371Z,21.99
2018-05-24T08:54:58.360Z,22.08
2018-05-24T08:55:58.210Z,21.75
2018-05-24T08:56:58.187Z,21.58
2018-05-24T08:57:58.041Z,21.64
2018-05-24T08:58:58.108Z,21.71
2018-05-24T08:59:57.911Z,21.67
2018-05-24T09:00:57.872Z,21.74
2018-05-24T09:01:57.751Z,21.93
2018-05-24T09:04:40.017Z,21.85
2018-05-24T09:05:39.979Z,21.67
2018-05-24T09:06:39.849Z,21.71
2018-05-24T09:07:39.891Z,21.67
2018-05-24T09:08:39.706Z,21.64
2018-05-24T09:09:39.730Z,21.59
2018-05-24T09:10:39.562Z,21.43
2018-05-24T09:11:39.509Z,21.22
2018-05-24T09:12:39.404Z,21.21
2018-05-24T09:13:39.421Z,21.16
2018-05-24T09:14:39.273Z,21.13
2018-05-24T09:15:39.228Z,21.05
2018-05-24T09:16:39.104Z,21.08
2018-05-24T09:17:39.138Z,21.12
2018-05-24T09:18:39.061Z,21.21
2018-05-24T09:19:38.987Z,21.11
2018-05-24T09:20:38.836Z,21.18
2018-05-24T09:21:38.821Z,21.28
2018-05-24T09:22:38.652Z,21.26
2018-05-24T09:23:38.686Z,21.26
2018-05-24T09:24:38.520Z,21.03
2018-05-24T09:25:38.477Z,20.94
2018-05-24T09:26:38.343Z,20.98
2018-05-24T09:27:38.387Z,20.93
2018-05-24T09:28:38.209Z,20.69
2018-05-24T09:29:38.149Z,20.64
2018-05-24T09:30:38.064Z,20.79
2018-05-24T09:31:38.002Z,20.97
2018-05-24T09:32:37.900Z,20.87
2018-05-24T09:35:20.086Z,20.82
2018-05-24T09:36:20.140Z,20.97
2018-05-24T09:37:19.864Z,21.00
2018-05-24T09:38:19.821Z,21.16
2018-05-24T09:39:19.706Z,21.21
2018-05-24T09:40:20.704Z,20.93
2018-05-24T09:41:19.591Z,21.05
2018-05-24T09:42:19.624Z,21.13
2018-05-24T09:43:19.396Z,21.09
2018-05-24T09:44:19.361Z,21.30
2018-05-24T09:45:19.264Z,21.30
2018-05-24T09:46:20.224Z,21.40
2018-05-24T09:47:19.105Z,21.66
2018-05-24T09:48:19.069Z,21.82
2018-05-24T09:49:18.963Z,21.85
2018-05-24T09:52:01.046Z,21.83
2018-05-24T09:53:00.975Z,21.37
2018-05-24T09:54:00.857Z,21.52
2018-05-24T09:55:00.903Z,21.55
2018-05-24T09:56:00.737Z,21.58
2018-05-24T09:57:00.761Z,21.61
2018-05-24T09:58:00.551Z,21.74
2018-05-24T10:00:42.513Z,22.21
2018-05-24T10:01:42.568Z,23.11
2018-05-24T10:02:42.397Z,23.57
2018-05-24T10:03:42.428Z,23.62
2018-05-24T10:04:42.229Z,23.72
2018-05-24T10:05:42.233Z,24.14
2018-05-24T10:06:42.070Z,24.27
2018-05-24T10:07:42.053Z,24.18
2018-05-24T10:08:41.945Z,23.89
2018-05-24T10:11:24.042Z,23.77
2018-05-24T10:12:24.080Z,23.64
2018-05-24T10:13:23.883Z,23.45
2018-05-24T10:14:23.850Z,23.81
2018-05-24T10:15:23.722Z,23.89
2018-05-24T10:16:23.796Z,23.87
2018-05-24T10:17:23.579Z,24.02
2018-05-24T10:18:23.602Z,23.96
2018-05-24T10:19:23.437Z,23.92
2018-05-24T10:20:23.494Z,24.24
2018-05-24T10:21:23.304Z,24.24
2018-05-24T10:22:24.412Z,24.45
2018-05-24T10:23:23.256Z,24.14
2018-05-24T10:26:05.048Z,24.66
2018-05-24T10:27:04.993Z,24.63
2018-05-24T10:28:04.904Z,24.31
2018-05-24T10:30:47.025Z,24.60
2018-05-24T10:31:47.004Z,24.44
2018-05-24T10:32:46.921Z,24.30
2018-05-24T10:33:46.821Z,23.84
2018-05-24T10:34:46.736Z,24.04
2018-05-24T10:35:46.735Z,23.64
2018-05-24T10:36:46.590Z,23.49
2018-05-24T10:37:46.636Z,23.01
2018-05-24T10:38:46.478Z,23.59
2018-05-24T10:39:46.443Z,23.94
2018-05-24T10:40:46.302Z,24.45
2018-05-24T10:41:46.360Z,25.14
2018-05-24T10:42:46.199Z,25.22
2018-05-24T10:43:46.187Z,25.76
2018-05-24T10:44:46.046Z,25.90
2018-05-24T10:45:46.071Z,26.39
2018-05-24T10:46:45.884Z,26.24
2018-05-24T10:47:45.884Z,25.49
2018-05-24T10:48:45.771Z,25.20
2018-05-24T10:49:45.799Z,25.76
2018-05-24T10:50:45.611Z,26.27
2018-05-24T10:51:45.616Z,25.79
2018-05-24T10:52:45.449Z,25.20
2018-05-24T10:53:45.534Z,24.93
2018-05-24T10:54:45.306Z,25.09
2018-05-24T10:55:45.337Z,25.42
2018-05-24T10:56:45.219Z,25.61
2018-05-24T10:59:27.148Z,24.93
2018-05-24T11:00:26.971Z,24.56
2018-05-24T11:01:26.894Z,24.44
2018-05-24T11:02:27.024Z,24.41
2018-05-24T11:03:26.850Z,23.99
2018-05-24T11:04:26.772Z,24.49
2018-05-24T11:05:26.617Z,24.64
2018-05-24T11:06:26.772Z,24.84
2018-05-24T11:07:26.476Z,25.11
2018-05-24T11:08:26.464Z,25.20
2018-05-24T11:09:26.345Z,25.66
2018-05-24T11:10:26.404Z,26.27
2018-05-24T11:11:26.193Z,26.71
2018-05-24T11:12:26.184Z,26.71
2018-05-24T11:13:26.061Z,27.15
2018-05-24T11:14:26.088Z,27.11
2018-05-24T11:15:25.948Z,26.65
2018-05-24T11:18:08.051Z,25.85
2018-05-24T11:19:08.106Z,25.94
2018-05-24T11:20:07.945Z,26.56
2018-05-24T11:21:07.918Z,26.78
2018-05-24T11:22:07.771Z,27.35
2018-05-24T11:23:07.822Z,27.55
2018-05-24T11:24:07.627Z,27.63
2018-05-24T11:25:08.716Z,27.98
2018-05-24T11:26:07.493Z,27.76
2018-05-24T11:27:07.567Z,27.33
2018-05-24T11:28:07.352Z,27.09
2018-05-24T11:29:07.356Z,27.01
2018-05-24T11:30:07.253Z,27.35
2018-05-24T11:31:07.270Z,27.71
2018-05-24T11:32:07.254Z,28.01
2018-05-24T11:33:07.058Z,28.08
2018-05-24T11:34:06.960Z,27.91
2018-05-24T11:35:06.992Z,28.02
2018-05-24T11:36:06.845Z,28.33
2018-05-24T11:37:06.831Z,27.84
2018-05-24T11:38:06.680Z,27.11
2018-05-24T11:39:06.708Z,27.03
2018-05-24T11:40:06.550Z,27.18
2018-05-24T11:41:06.640Z,26.98
2018-05-24T11:42:06.446Z,27.24
2018-05-24T11:43:06.525Z,27.49
2018-05-24T11:44:06.273Z,26.87
2018-05-24T11:45:06.243Z,26.01
2018-05-24T11:46:06.139Z,25.74
2018-05-24T11:47:06.097Z,25.48
2018-05-24T11:48:06.015Z,25.42
2018-05-24T11:49:05.967Z,25.72
2018-05-24T11:50:05.878Z,25.96
2018-05-24T11:51:06.202Z,25.60
2018-05-24T11:52:05.827Z,25.35
2018-05-24T11:53:07.353Z,24.82
2018-05-24T11:54:05.631Z,24.83
2018-05-24T11:55:07.541Z,24.89
2018-05-24T11:56:05.474Z,25.11
2018-05-24T11:57:07.640Z,24.83
2018-05-24T11:58:05.345Z,24.53
2018-05-24T11:59:07.750Z,24.33
2018-05-24T12:00:05.202Z,24.09
2018-05-24T12:02:51.123Z,23.92
2018-05-24T12:03:51.133Z,24.12
2018-05-24T12:04:50.924Z,24.27
2018-05-24T12:07:33.069Z,24.23
2018-05-24T12:08:33.140Z,24.44
2018-05-24T12:09:32.917Z,24.44
2018-05-24T12:10:32.917Z,24.45
2018-05-24T12:11:32.782Z,24.63
2018-05-24T12:12:32.827Z,24.56
2018-05-24T12:13:32.659Z,24.33
2018-05-24T12:16:14.586Z,23.96
2018-05-24T12:17:14.521Z,24.12
2018-05-24T12:18:14.438Z,24.33
2018-05-24T12:19:14.428Z,24.53
2018-05-24T12:20:14.279Z,24.46
2018-05-24T12:21:14.242Z,24.84
2018-05-24T12:22:14.131Z,24.98
2018-05-24T12:23:14.149Z,24.83
2018-05-24T12:24:14.126Z,24.87
2018-05-24T12:25:14.037Z,24.93
2018-05-24T12:26:13.845Z,25.05
2018-05-24T12:27:13.877Z,25.51
2018-05-24T12:28:13.697Z,25.57
2018-05-24T12:29:13.804Z,25.63
2018-05-24T12:30:13.547Z,25.53
2018-05-24T12:31:13.599Z,25.22
2018-05-24T12:32:13.411Z,25.20
2018-05-24T12:33:13.403Z,25.09
2018-05-24T12:34:13.290Z,25.34
2018-05-24T12:35:13.362Z,25.38
2018-05-24T12:36:13.111Z,25.38
2018-05-24T12:37:13.125Z,25.59
2018-05-24T12:38:12.977Z,25.98
2018-05-24T12:39:13.063Z,25.89
2018-05-24T12:40:12.848Z,25.51
2018-05-24T12:41:12.849Z,25.57
2018-05-24T12:42:12.668Z,25.49
2018-05-24T12:43:12.648Z,25.64
2018-05-24T12:44:12.533Z,25.98
2018-05-24T12:45:12.601Z,26.31
2018-05-24T12:46:12.382Z,26.49
2018-05-24T12:47:12.365Z,26.31
2018-05-24T12:48:12.227Z,26.17
2018-05-24T12:49:12.279Z,26.36
2018-05-24T12:50:12.122Z,26.20
2018-05-24T12:51:12.092Z,26.42
2018-05-24T12:52:11.972Z,26.78
2018-05-24T12:53:12.014Z,26.57
2018-05-24T12:54:11.861Z,26.20
2018-05-24T12:55:12.360Z,26.16
2018-05-24T12:56:11.684Z,26.28
2018-05-24T12:58:53.586Z,26.04
2018-05-24T12:59:53.658Z,25.61
2018-05-24T13:00:53.477Z,25.91
2018-05-24T13:01:53.418Z,25.85
2018-05-24T13:02:53.288Z,25.89
2018-05-24T13:03:53.333Z,25.91
2018-05-24T13:04:53.190Z,25.89
2018-05-24T13:05:53.143Z,26.11
2018-05-24T13:06:53.094Z,25.98
2018-05-24T13:07:53.060Z,25.83
2018-05-24T13:08:52.870Z,25.94
2018-05-24T13:09:52.874Z,26.04
2018-05-24T13:10:52.761Z,25.94
2018-05-24T13:11:55.179Z,25.86
2018-05-24T13:12:52.586Z,25.91
2018-05-24T13:13:52.581Z,25.85
2018-05-24T13:14:52.435Z,25.71
2018-05-24T13:16:00.346Z,25.89
2018-05-24T13:16:52.294Z,25.89
2018-05-24T13:17:52.336Z,26.06
2018-05-24T13:18:52.144Z,26.11
2018-05-24T13:19:52.110Z,26.09
2018-05-24T13:20:52.014Z,26.31
2018-05-24T13:23:34.103Z,26.11
2018-05-24T13:24:34.198Z,25.86
2018-05-24T13:25:33.959Z,25.71
2018-05-24T13:26:33.961Z,25.60
2018-05-24T13:27:33.810Z,25.66
2018-05-24T13:30:16.109Z,25.71
2018-05-24T13:31:16.141Z,25.71
2018-05-24T13:32:16.010Z,25.72
2018-05-24T13:35:59.182Z,25.89
2018-05-24T13:36:59.099Z,25.34
2018-05-24T13:37:58.970Z,25.36
2018-05-24T13:38:58.891Z,25.54
2018-05-24T13:39:58.910Z,25.60
2018-05-24T13:40:58.728Z,25.79
2018-05-24T13:41:58.705Z,25.60
2018-05-24T13:42:58.683Z,25.53
2018-05-24T13:43:58.639Z,25.35
2018-05-24T13:44:58.461Z,25.61
2018-05-24T13:47:40.623Z,25.78
2018-05-24T13:50:22.610Z,26.03
2018-05-24T13:53:04.727Z,25.17
2018-05-24T13:55:46.620Z,25.04
2018-05-24T13:58:28.621Z,25.30
2018-05-24T14:01:10.626Z,25.26
2018-05-24T14:02:10.545Z,25.11
2018-05-24T14:03:10.482Z,24.97
2018-05-24T14:04:10.386Z,24.70
2018-05-24T14:05:10.317Z,24.67
2018-05-24T14:06:10.251Z,24.66
2018-05-24T14:07:10.174Z,24.68
2018-05-24T14:08:10.186Z,24.59
2018-05-24T14:09:10.038Z,24.42
2018-05-24T14:10:09.958Z,24.30
2018-05-24T14:11:09.866Z,24.42
2018-05-24T14:12:09.873Z,24.29
2018-05-24T14:13:09.732Z,24.12
2018-05-24T14:14:09.667Z,24.18
2018-05-24T14:15:09.579Z,24.15
2018-05-24T14:16:09.588Z,24.18
2018-05-24T14:17:09.426Z,24.31
2018-05-24T14:18:09.491Z,24.24